createdAt,value
2022-11-10T00:00:04.250Z,2.40
2022-11-10T00:03:30.472Z,1.63
2022-11-10T00:06:36.070Z,2.13
2022-11-10T00:09:45.533Z,2.10
2022-11-10T00:12:55.135Z,2.25
2022-11-10T00:16:16.260Z,2.13
2022-11-10T00:19:21.397Z,2.42
2022-11-10T00:22:29.980Z,2.60
2022-11-10T00:25:37.434Z,2.35
2022-11-10T00:28:46.262Z,2.83
2022-11-10T00:32:00.469Z,2.33
2022-11-10T00:35:12.611Z,2.03
2022-11-10T00:38:17.598Z,2.47
2022-11-10T00:41:24.272Z,2.42
2022-11-10T00:44:36.053Z,2.45
2022-11-10T00:47:41.778Z,2.30
2022-11-10T00:50:48.737Z,2.20
2022-11-10T00:53:56.653Z,2.55
2022-11-10T00:57:03.665Z,2.08
2022-11-10T01:00:16.143Z,1.88
2022-11-10T01:03:24.095Z,2.35
2022-11-10T01:06:32.462Z,2.40
2022-11-10T01:09:37.813Z,1.83
2022-11-10T01:12:45.289Z,2.20
2022-11-10T01:15:53.384Z,1.95
2022-11-10T01:19:06.894Z,2.45
2022-11-10T01:22:12.429Z,1.88
2022-11-10T01:25:21.528Z,2.35
2022-11-10T01:28:37.183Z,2.03
2022-11-10T01:31:50.692Z,1.70
2022-11-10T01:34:57.391Z,2.22
2022-11-10T01:38:04.524Z,2.13
2022-11-10T01:41:10.823Z,2.08
2022-11-10T01:44:17.750Z,1.98
2022-11-10T01:47:25.611Z,2.60
2022-11-10T01:50:33.630Z,2.03
2022-11-10T01:53:44.003Z,2.50
2022-11-10T01:56:53.669Z,2.05
2022-11-10T01:59:59.069Z,1.63
2022-11-10T02:03:15.318Z,2.00
2022-11-10T02:06:28.113Z,1.88
2022-11-10T02:09:35.443Z,1.60
2022-11-10T02:12:41.287Z,2.00
2022-11-10T02:15:49.257Z,2.15
2022-11-10T02:18:59.979Z,2.30
2022-11-10T02:22:08.393Z,2.05
2022-11-10T02:25:15.199Z,1.70
2022-11-10T02:28:23.489Z,1.70
2022-11-10T02:31:32.134Z,1.70
2022-11-10T02:34:37.790Z,2.10
2022-11-10T02:37:49.563Z,1.83
2022-11-10T02:40:56.345Z,1.90
2022-11-10T02:44:03.165Z,1.90
2022-11-10T02:47:08.804Z,2.00
2022-11-10T02:50:13.775Z,1.73
2022-11-10T02:53:29.190Z,1.58
2022-11-10T02:56:38.958Z,2.00
2022-11-10T02:59:46.445Z,1.73
2022-11-10T03:03:02.199Z,1.65
2022-11-10T03:06:10.197Z,1.60
2022-11-10T03:09:18.036Z,1.83
2022-11-10T03:12:26.812Z,1.42
2022-11-10T03:15:32.414Z,2.15
2022-11-10T03:18:41.399Z,1.90
2022-11-10T03:21:47.169Z,1.52
2022-11-10T03:24:55.801Z,1.73
2022-11-10T03:28:02.325Z,1.48
2022-11-10T03:31:11.527Z,1.60
2022-11-10T03:34:17.430Z,1.50
2022-11-10T03:37:25.796Z,1.80
2022-11-10T03:40:50.766Z,1.98
2022-11-10T03:44:02.264Z,1.55
2022-11-10T03:47:07.201Z,1.20
2022-11-10T03:50:13.178Z,1.80
2022-11-10T03:53:18.682Z,1.95
2022-11-10T03:56:29.556Z,1.48
2022-11-10T03:59:37.976Z,1.95
2022-11-10T04:02:46.544Z,1.83
2022-11-10T04:06:05.452Z,2.65
2022-11-10T04:09:17.415Z,1.80
2022-11-10T04:12:37.762Z,1.58
2022-11-10T04:15:47.242Z,1.70
2022-11-10T04:18:55.221Z,1.67
2022-11-10T04:22:07.519Z,1.70
2022-11-10T04:25:17.488Z,1.73
2022-11-10T04:28:26.330Z,1.10
2022-11-10T04:31:32.850Z,2.20
2022-11-10T04:34:39.661Z,1.63
2022-11-10T04:37:47.556Z,1.73
2022-11-10T04:40:53.514Z,1.20
2022-11-10T04:44:01.593Z,1.67
2022-11-10T04:47:12.274Z,1.60
2022-11-10T04:50:18.733Z,1.77
2022-11-10T04:53:26.668Z,1.90
2022-11-10T04:56:32.446Z,1.52
2022-11-10T04:59:40.533Z,2.20
2022-11-10T05:02:45.774Z,1.70
2022-11-10T05:05:52.633Z,2.28
2022-11-10T05:08:57.638Z,1.38
2022-11-10T05:12:02.900Z,1.90
2022-11-10T05:15:13.444Z,1.60
2022-11-10T05:18:22.407Z,1.02
2022-11-10T05:21:28.378Z,1.50
2022-11-10T05:24:34.621Z,1.42
2022-11-10T05:27:50.069Z,1.30
2022-11-10T05:30:58.205Z,1.30
2022-11-10T05:34:03.706Z,1.40
2022-11-10T05:37:09.700Z,1.05
2022-11-10T05:40:14.796Z,1.30
2022-11-10T05:43:21.218Z,1.33
2022-11-10T05:46:31.708Z,1.45
2022-11-10T05:49:37.458Z,1.50
2022-11-10T05:52:50.034Z,1.42
2022-11-10T05:56:00.404Z,1.45
2022-11-10T05:59:05.454Z,1.20
2022-11-10T06:02:15.984Z,1.38
2022-11-10T06:05:26.841Z,1.40
2022-11-10T06:11:40.954Z,1.92
2022-11-10T06:14:46.616Z,1.50
2022-11-10T06:17:55.258Z,1.45
2022-11-10T06:21:02.417Z,1.65
2022-11-10T06:24:09.190Z,1.35
2022-11-10T06:27:15.098Z,1.73
2022-11-10T06:30:21.817Z,1.60
2022-11-10T06:33:31.250Z,1.77
2022-11-10T06:36:41.389Z,2.25
2022-11-10T06:39:53.308Z,1.50
2022-11-10T06:42:58.633Z,1.58
2022-11-10T06:46:08.617Z,1.90
2022-11-10T06:49:16.514Z,1.58
2022-11-10T06:52:22.347Z,1.60
2022-11-10T06:55:27.550Z,1.58
2022-11-10T06:58:33.326Z,1.90
2022-11-10T07:01:38.641Z,1.90
2022-11-10T07:04:46.998Z,1.70
2022-11-10T07:07:56.057Z,1.33
2022-11-10T07:14:09.425Z,2.58
2022-11-10T07:17:14.845Z,1.90
2022-11-10T07:20:26.505Z,2.08
2022-11-10T07:23:31.878Z,2.13
2022-11-10T07:26:38.572Z,2.30
2022-11-10T07:29:43.834Z,3.70
2022-11-10T07:32:50.442Z,2.70
2022-11-10T07:36:02.137Z,2.25
2022-11-10T07:39:09.061Z,2.30
2022-11-10T07:42:15.553Z,2.58
2022-11-10T07:45:20.725Z,2.20
2022-11-10T07:48:26.472Z,2.20
2022-11-10T07:51:35.372Z,2.38
2022-11-10T07:54:42.675Z,2.47
2022-11-10T07:57:50.027Z,2.38
2022-11-10T08:00:56.581Z,2.08
2022-11-10T08:04:03.810Z,2.47
2022-11-10T08:07:13.894Z,2.10
2022-11-10T08:10:19.404Z,2.83
2022-11-10T08:13:26.760Z,2.65
2022-11-10T08:16:33.050Z,2.90
2022-11-10T08:19:38.584Z,2.28
2022-11-10T08:22:46.690Z,3.20
2022-11-10T08:25:54.206Z,2.20
2022-11-10T08:28:59.167Z,3.63
2022-11-10T08:32:04.629Z,2.50
2022-11-10T08:35:10.289Z,2.50
2022-11-10T08:38:20.460Z,3.17
2022-11-10T08:41:28.810Z,2.17
2022-11-10T08:44:36.125Z,2.65
2022-11-10T08:47:44.710Z,3.15
2022-11-10T08:50:51.676Z,2.45
2022-11-10T08:54:01.022Z,3.40
2022-11-10T08:57:07.317Z,3.13
2022-11-10T09:00:13.465Z,2.80
2022-11-10T09:03:21.611Z,3.38
2022-11-10T09:06:31.142Z,3.20
2022-11-10T09:10:01.327Z,3.10
2022-11-10T09:13:11.689Z,3.03
2022-11-10T09:16:18.723Z,3.60
2022-11-10T09:19:24.498Z,2.83
2022-11-10T09:22:32.129Z,2.63
2022-11-10T09:25:41.000Z,3.22
2022-11-10T09:28:46.893Z,2.78
2022-11-10T09:31:53.412Z,3.10
2022-11-10T09:35:00.829Z,3.70
2022-11-10T09:38:13.062Z,2.60
2022-11-10T09:41:24.198Z,3.30
2022-11-10T09:44:30.873Z,2.88
2022-11-10T09:47:56.872Z,2.88
2022-11-10T09:51:04.804Z,2.95
2022-11-10T09:54:19.144Z,2.95
2022-11-10T09:57:32.161Z,2.92
2022-11-10T10:03:49.417Z,2.80
2022-11-10T10:07:16.070Z,2.20
2022-11-10T10:10:24.341Z,2.50
2022-11-10T10:13:36.931Z,3.13
2022-11-10T10:16:47.274Z,3.35
2022-11-10T10:20:00.610Z,3.45
2022-11-10T10:23:11.464Z,2.73
2022-11-10T10:26:18.385Z,2.70
2022-11-10T10:29:27.598Z,2.63
2022-11-10T10:32:33.272Z,2.97
2022-11-10T10:35:41.790Z,2.58
2022-11-10T10:38:53.325Z,2.47
2022-11-10T10:41:58.554Z,2.53
2022-11-10T10:45:21.273Z,2.88
2022-11-10T10:48:32.245Z,2.45
2022-11-10T10:51:40.677Z,3.43
2022-11-10T10:54:46.315Z,2.20
2022-11-10T10:58:01.301Z,2.83
2022-11-10T11:01:09.079Z,2.88
2022-11-10T11:04:31.168Z,2.10
2022-11-10T11:07:42.084Z,2.42
2022-11-10T11:10:50.780Z,2.10
2022-11-10T11:13:56.899Z,2.13
2022-11-10T11:17:03.440Z,1.75
2022-11-10T11:20:09.607Z,1.75
2022-11-10T11:23:30.898Z,1.77
2022-11-10T11:26:41.243Z,2.10
2022-11-10T11:30:02.097Z,2.67
2022-11-10T11:33:16.808Z,1.73
2022-11-10T11:36:28.122Z,2.33
2022-11-10T11:39:41.216Z,1.65
2022-11-10T11:42:53.064Z,1.70
2022-11-10T11:46:01.798Z,1.73
2022-11-10T11:49:20.762Z,2.28
2022-11-10T11:52:33.500Z,1.80
2022-11-10T11:55:47.890Z,1.58
2022-11-10T11:58:59.130Z,1.80
2022-11-10T12:02:22.904Z,1.70
2022-11-10T12:05:36.444Z,1.63
2022-11-10T12:08:46.665Z,3.00
2022-11-10T12:12:03.277Z,1.90
2022-11-10T12:15:17.778Z,2.17
2022-11-10T12:18:32.851Z,2.28
2022-11-10T12:21:53.315Z,2.20
2022-11-10T12:25:05.865Z,1.65
2022-11-10T12:28:18.605Z,2.28
2022-11-10T12:31:24.901Z,2.38
2022-11-10T12:34:35.051Z,2.10
2022-11-10T12:37:43.448Z,2.78
2022-11-10T12:40:51.755Z,1.90
2022-11-10T12:44:08.769Z,2.20
2022-11-10T12:47:20.031Z,3.35
2022-11-10T12:50:42.854Z,2.40
2022-11-10T12:53:51.538Z,2.90
2022-11-10T12:56:59.307Z,2.40
2022-11-10T13:00:12.891Z,2.53
2022-11-10T13:03:28.663Z,2.08
2022-11-10T13:06:36.062Z,2.05
2022-11-10T13:09:43.845Z,2.67
2022-11-10T13:13:01.163Z,2.40
2022-11-10T13:16:11.448Z,2.38
2022-11-10T13:19:39.304Z,1.95
2022-11-10T13:22:49.086Z,1.73
2022-11-10T13:25:56.673Z,2.30
2022-11-10T13:29:05.053Z,2.13
2022-11-10T13:32:26.052Z,2.03
2022-11-10T13:35:49.964Z,2.28
2022-11-10T13:39:21.947Z,1.90
2022-11-10T13:42:27.302Z,2.55
2022-11-10T13:45:37.265Z,2.20
2022-11-10T13:48:53.134Z,2.17
2022-11-10T13:52:06.616Z,1.65
2022-11-10T13:55:28.156Z,1.95
2022-11-10T13:58:40.704Z,1.70
2022-11-10T14:01:46.682Z,1.90
2022-11-10T14:04:54.662Z,1.98
2022-11-10T14:08:05.858Z,2.53
2022-11-10T14:11:18.455Z,2.30
2022-11-10T14:14:31.812Z,2.30
2022-11-10T14:17:39.647Z,2.42
2022-11-10T14:20:45.914Z,2.17
2022-11-10T14:23:53.544Z,2.30
2022-11-10T14:27:03.308Z,2.30
2022-11-10T14:30:25.057Z,2.40
2022-11-10T14:33:30.820Z,2.13
2022-11-10T14:36:37.176Z,2.13
2022-11-10T14:39:44.274Z,2.22
2022-11-10T14:42:50.835Z,2.45
2022-11-10T14:45:59.294Z,2.40
2022-11-10T14:49:05.705Z,2.70
2022-11-10T14:52:15.141Z,2.05
2022-11-10T14:55:22.549Z,2.22
2022-11-10T14:58:29.965Z,2.65
2022-11-10T15:01:44.792Z,2.35
2022-11-10T15:04:52.243Z,3.35
2022-11-10T15:08:01.075Z,3.42
2022-11-10T15:11:08.816Z,3.38
2022-11-10T15:14:31.425Z,2.90
2022-11-10T15:17:57.454Z,3.03
2022-11-10T15:21:07.183Z,2.95
2022-11-10T15:24:13.704Z,4.05
2022-11-10T15:27:45.136Z,2.83
2022-11-10T15:30:57.905Z,3.20
2022-11-10T15:34:08.081Z,2.90
2022-11-10T15:37:30.587Z,2.88
2022-11-10T15:40:47.220Z,3.30
2022-11-10T15:43:52.420Z,2.83
2022-11-10T15:46:58.664Z,2.58
2022-11-10T15:50:04.929Z,3.05
2022-11-10T15:53:22.755Z,3.20
2022-11-10T15:56:28.494Z,2.97
2022-11-10T15:59:40.021Z,3.20
2022-11-10T16:02:47.093Z,3.15
2022-11-10T16:05:53.270Z,3.60
2022-11-10T16:09:14.358Z,4.03
2022-11-10T16:12:22.464Z,3.80
2022-11-10T16:15:28.365Z,3.53
2022-11-10T16:18:34.153Z,3.95
2022-11-10T16:21:43.646Z,3.25
2022-11-10T16:24:52.079Z,3.72
2022-11-10T16:27:57.594Z,3.63
2022-11-10T16:31:03.708Z,3.75
2022-11-10T16:34:13.821Z,3.60
2022-11-10T16:37:19.564Z,3.85
2022-11-10T16:40:30.184Z,3.78
2022-11-10T16:43:36.868Z,3.28
2022-11-10T16:46:42.803Z,3.80
2022-11-10T16:49:51.030Z,3.55
2022-11-10T16:52:57.238Z,3.67
2022-11-10T16:56:05.512Z,3.95
2022-11-10T16:59:13.606Z,3.40
2022-11-10T17:02:25.905Z,3.05
2022-11-10T17:05:33.106Z,3.05
2022-11-10T17:08:39.142Z,3.53
2022-11-10T17:11:46.853Z,3.78
2022-11-10T17:14:52.176Z,3.10
2022-11-10T17:17:59.847Z,3.88
2022-11-10T17:21:10.198Z,3.55
2022-11-10T17:24:16.704Z,3.67
2022-11-10T17:27:26.514Z,3.50
2022-11-10T17:30:31.734Z,3.67
2022-11-10T17:33:38.033Z,3.67
2022-11-10T17:36:43.626Z,3.40
2022-11-10T17:39:56.644Z,3.72
2022-11-10T17:43:06.338Z,3.95
2022-11-10T17:46:11.736Z,3.85
2022-11-10T17:49:18.279Z,4.22
2022-11-10T17:52:24.565Z,3.95
2022-11-10T17:55:34.059Z,3.22
2022-11-10T17:58:46.873Z,3.95
2022-11-10T18:01:52.031Z,4.00
2022-11-10T18:04:57.778Z,4.53
2022-11-10T18:08:02.790Z,3.63
2022-11-10T18:11:09.959Z,5.07
2022-11-10T18:14:20.105Z,4.05
2022-11-10T18:17:25.864Z,3.45
2022-11-10T18:20:31.561Z,3.60
2022-11-10T18:23:39.894Z,4.38
2022-11-10T18:26:46.650Z,4.07
2022-11-10T18:29:59.761Z,4.05
2022-11-10T18:33:05.131Z,3.78
2022-11-10T18:36:11.804Z,4.15
2022-11-10T18:39:19.015Z,4.45
2022-11-10T18:42:24.809Z,4.55
2022-11-10T18:45:33.234Z,4.20
2022-11-10T18:48:42.675Z,5.30
2022-11-10T18:51:48.106Z,4.50
2022-11-10T18:54:56.626Z,4.93
2022-11-10T18:58:09.065Z,4.38
2022-11-10T19:01:17.976Z,4.95
2022-11-10T19:04:23.565Z,5.20
2022-11-10T19:07:39.980Z,5.40
2022-11-10T19:10:45.884Z,3.70
2022-11-10T19:13:53.078Z,4.80
2022-11-10T19:17:02.664Z,5.25
2022-11-10T19:20:10.673Z,3.70
2022-11-10T19:23:15.748Z,5.07
2022-11-10T19:26:23.147Z,4.95
2022-11-10T19:29:28.837Z,5.32
2022-11-10T19:32:42.946Z,5.65
2022-11-10T19:35:51.699Z,5.85
2022-11-10T19:39:01.465Z,6.05
2022-11-10T19:42:08.926Z,5.93
2022-11-10T19:45:18.741Z,5.03
2022-11-10T19:48:27.973Z,5.28
2022-11-10T19:51:36.684Z,4.90
2022-11-10T19:54:43.630Z,5.50
2022-11-10T19:57:49.333Z,5.00
2022-11-10T20:00:57.049Z,5.82
2022-11-10T20:04:13.197Z,6.55
2022-11-10T20:07:31.461Z,5.28
2022-11-10T20:10:37.757Z,5.75
2022-11-10T20:13:49.728Z,5.75
2022-11-10T20:20:06.127Z,4.90
2022-11-10T20:23:14.266Z,4.95
2022-11-10T20:26:22.131Z,4.75
2022-11-10T20:29:30.283Z,4.93
2022-11-10T20:32:39.905Z,4.95
2022-11-10T20:35:50.696Z,4.80
2022-11-10T20:38:58.066Z,5.57
2022-11-10T20:42:06.745Z,5.82
2022-11-10T20:45:15.402Z,5.88
2022-11-10T20:48:21.413Z,5.18
2022-11-10T20:51:30.602Z,5.38
2022-11-10T20:54:37.737Z,6.22
2022-11-10T20:57:48.132Z,6.03
2022-11-10T21:00:54.594Z,6.65
2022-11-10T21:03:59.858Z,7.63
2022-11-10T21:07:08.231Z,6.63
2022-11-10T21:10:13.324Z,5.82
2022-11-10T21:13:18.919Z,6.78
2022-11-10T21:16:24.462Z,4.88
2022-11-10T21:19:30.590Z,6.00
2022-11-10T21:22:46.811Z,6.18
2022-11-10T21:25:57.734Z,5.60
2022-11-10T21:29:10.648Z,5.22
2022-11-10T21:32:16.916Z,4.85
2022-11-10T21:35:25.242Z,5.82
2022-11-10T21:38:34.197Z,4.85
2022-11-10T21:41:40.906Z,5.90
2022-11-10T21:44:55.491Z,4.95
2022-11-10T21:48:02.663Z,5.93
2022-11-10T21:51:09.633Z,4.70
2022-11-10T21:54:17.951Z,5.85
2022-11-10T21:57:25.201Z,4.65
2022-11-10T22:00:30.724Z,5.30
2022-11-10T22:03:39.020Z,5.40
2022-11-10T22:06:59.040Z,5.47
2022-11-10T22:10:21.789Z,5.30
2022-11-10T22:13:40.400Z,4.47
2022-11-10T22:17:01.728Z,4.80
2022-11-10T22:20:07.029Z,5.22
2022-11-10T22:23:15.084Z,5.15
2022-11-10T22:26:23.452Z,4.65
2022-11-10T22:29:31.901Z,4.55
2022-11-10T22:32:38.031Z,4.97
2022-11-10T22:35:49.736Z,4.65
2022-11-10T22:38:59.090Z,4.13
2022-11-10T22:42:26.176Z,4.45
2022-11-10T22:45:35.087Z,3.85
2022-11-10T22:48:40.814Z,3.72
2022-11-10T22:51:47.030Z,3.97
2022-11-10T22:54:53.053Z,4.50
2022-11-10T22:58:01.241Z,3.92
2022-11-10T23:01:10.153Z,3.78
2022-11-10T23:04:16.141Z,3.72
2022-11-10T23:07:22.185Z,4.03
2022-11-10T23:10:31.392Z,5.40
2022-11-10T23:13:42.220Z,3.33
2022-11-10T23:16:51.954Z,3.75
2022-11-10T23:19:57.869Z,3.22
2022-11-10T23:23:07.637Z,3.63
2022-11-10T23:26:13.897Z,4.45
2022-11-10T23:29:24.850Z,3.15
2022-11-10T23:32:36.083Z,3.55
2022-11-10T23:35:44.265Z,3.17
2022-11-10T23:38:50.210Z,3.50
2022-11-10T23:41:58.609Z,3.40
2022-11-10T23:45:07.332Z,3.15
2022-11-10T23:48:18.610Z,3.83
2022-11-10T23:51:30.101Z,3.67
2022-11-10T23:54:35.905Z,3.10
2022-11-10T23:57:42.164Z,3.33
